Time;durP1;ratioP1;P1;durP2;ratioP2;P2;SDS_P1;SDS_P2;PMS_P1;PMS_P2;Temp;Humidity;BMP_temperature;BMP_pressure;BME280_temperature;BME280_humidity;BME280_pressure;Samples;Min_cycle;Max_cycle;Signal;HPM_P1;HPM_P2
2023/08/16 00:01:24;;;;;;;12.00;10.80;;;13.50;99.90;;;;;;5052730;28;20489;-89
2023/08/16 00:03:50;;;;;;;10.43;9.17;;;13.50;99.90;;;;;;5053303;28;20422;-89
2023/08/16 00:06:16;;;;;;;10.20;9.15;;;13.50;99.90;;;;;;5052530;28;20402;-89
2023/08/16 00:08:42;;;;;;;11.90;10.70;;;13.50;99.90;;;;;;5053020;28;20398;-90
2023/08/16 00:11:09;;;;;;;10.70;9.73;;;13.50;99.90;;;;;;5052538;28;20417;-90
2023/08/16 00:13:35;;;;;;;14.60;11.82;;;13.50;99.90;;;;;;5069751;28;20410;-90
2023/08/16 00:16:01;;;;;;;11.10;9.87;;;13.90;99.90;;;;;;5052890;28;21071;-90
2023/08/16 00:18:30;;;;;;;9.40;8.50;;;13.60;99.90;;;;;;5052644;28;20440;-89
2023/08/16 00:20:58;;;;;;;6.00;5.50;;;13.30;99.90;;;;;;5069979;28;20382;-89
2023/08/16 00:23:23;;;;;;;8.00;6.72;;;13.50;99.90;;;;;;5069532;28;20402;-89
2023/08/16 00:25:49;;;;;;;8.38;7.50;;;13.10;99.90;;;;;;5052417;28;20505;-88
2023/08/16 00:28:14;;;;;;;9.10;8.20;;;13.10;99.90;;;;;;5069057;28;20406;-89
2023/08/16 00:30:40;;;;;;;12.20;11.00;;;13.40;99.90;;;;;;5053114;28;20965;-89
2023/08/16 00:33:06;;;;;;;9.50;8.70;;;13.40;99.90;;;;;;5052262;28;20455;-88
2023/08/16 00:35:32;;;;;;;8.90;8.00;;;13.00;99.90;;;;;;5052489;28;20414;-89
2023/08/16 00:37:58;;;;;;;10.03;8.93;;;13.10;99.90;;;;;;5052575;28;20402;-89
2023/08/16 00:40:24;;;;;;;11.90;10.60;;;13.10;99.90;;;;;;5052077;28;20454;-89
2023/08/16 00:42:50;;;;;;;11.50;10.40;;;13.10;99.90;;;;;;5053259;28;20442;-89
2023/08/16 00:45:16;;;;;;;11.10;10.00;;;13.10;99.90;;;;;;5052007;28;20838;-90
2023/08/16 00:47:42;;;;;;;13.35;11.15;;;13.10;99.90;;;;;;5052739;28;20402;-90
2023/08/16 00:50:08;;;;;;;12.00;10.68;;;13.10;99.90;;;;;;5052044;28;20404;-89
2023/08/16 00:52:34;;;;;;;9.18;8.27;;;13.00;99.90;;;;;;5052419;28;20408;-90
2023/08/16 00:55:02;;;;;;;9.90;9.00;;;13.10;99.90;;;;;;5052851;28;20775;-89
2023/08/16 00:57:29;;;;;;;10.50;9.48;;;13.10;99.90;;;;;;5052130;28;20413;-88
2023/08/16 00:59:55;;;;;;;17.10;11.45;;;13.10;99.90;;;;;;5053118;28;20476;-88
2023/08/16 01:02:21;;;;;;;12.40;10.30;;;13.10;99.90;;;;;;5052515;28;20981;-89
2023/08/16 01:04:47;;;;;;;10.57;9.57;;;13.00;99.90;;;;;;5052381;28;20461;-89
2023/08/16 01:07:14;;;;;;;10.35;9.25;;;12.80;99.90;;;;;;5052104;28;20410;-88
2023/08/16 01:09:40;;;;;;;8.07;7.13;;;12.90;99.90;;;;;;5052531;28;20455;-88
2023/08/16 01:12:36;;;;;;;9.73;8.80;;;12.90;99.90;;;;;;5052414;28;20495;-88
2023/08/16 01:15:24;;;;;;;9.38;8.38;;;13.00;99.90;;;;;;5068008;28;20406;-90
2023/08/16 01:17:53;;;;;;;7.90;7.10;;;12.90;99.90;;;;;;5056006;28;20406;-89
2023/08/16 01:20:21;;;;;;;7.07;5.95;;;12.80;99.90;;;;;;5055921;28;20464;-88
2023/08/16 01:23:05;;;;;;;6.07;5.30;;;12.70;99.90;;;;;;5056081;28;20439;-89
2023/08/16 01:25:46;;;;;;;11.10;9.63;;;12.70;99.90;;;;;;5056088;28;21037;-89
2023/08/16 01:28:13;;;;;;;11.52;10.43;;;12.60;99.90;;;;;;5055415;28;20413;-88
2023/08/16 01:30:42;;;;;;;8.93;8.02;;;12.60;99.90;;;;;;5055542;28;20455;-87
2023/08/16 01:33:09;;;;;;;10.10;9.20;;;12.60;99.90;;;;;;5055509;28;20405;-89
2023/08/16 01:35:35;;;;;;;9.57;8.35;;;12.70;99.90;;;;;;5055975;28;20406;-89
2023/08/16 01:38:03;;;;;;;143.43;13.23;;;12.90;99.90;;;;;;5055348;28;20941;-88
2023/08/16 01:40:34;;;;;;;13.48;9.48;;;12.50;99.90;;;;;;5055341;28;20409;-88
2023/08/16 01:43:01;;;;;;;9.48;8.48;;;12.50;99.90;;;;;;5055717;28;20405;-88
2023/08/16 01:45:28;;;;;;;9.93;8.70;;;12.50;99.90;;;;;;5055011;28;20490;-89
2023/08/16 01:47:54;;;;;;;10.75;9.65;;;12.40;99.90;;;;;;5056097;28;20406;-89
2023/08/16 01:50:21;;;;;;;10.13;9.03;;;12.40;99.90;;;;;;5051235;28;20415;-90
2023/08/16 01:52:47;;;;;;;9.15;8.25;;;12.70;99.90;;;;;;5052220;28;20907;-89
2023/08/16 01:55:13;;;;;;;8.02;7.22;;;12.40;99.90;;;;;;5051697;28;20442;-89
2023/08/16 01:57:38;;;;;;;10.17;9.17;;;12.40;99.90;;;;;;5051903;28;20585;-89
2023/08/16 02:00:04;;;;;;;9.10;7.57;;;12.30;99.90;;;;;;5068922;28;20486;-88
2023/08/16 02:02:30;;;;;;;10.50;9.18;;;12.30;99.90;;;;;;5068075;28;20763;-89
2023/08/16 02:04:56;;;;;;;10.23;8.43;;;12.30;99.90;;;;;;5051839;28;20423;-89
2023/08/16 02:07:21;;;;;;;8.47;7.67;;;12.30;99.90;;;;;;5050851;28;20423;-89
2023/08/16 02:09:47;;;;;;;10.73;9.02;;;12.40;99.90;;;;;;5051499;28;20400;-89
2023/08/16 02:12:13;;;;;;;9.35;8.45;;;12.20;99.90;;;;;;5051800;28;20433;-88
2023/08/16 02:14:38;;;;;;;9.53;8.53;;;12.20;99.90;;;;;;5051776;28;20400;-88
2023/08/16 02:17:04;;;;;;;8.90;8.07;;;12.20;99.90;;;;;;5051582;28;20448;-89
2023/08/16 02:19:29;;;;;;;10.97;9.77;;;12.20;99.90;;;;;;5051104;28;20408;-89
2023/08/16 02:21:55;;;;;;;8.65;7.75;;;12.40;99.90;;;;;;5051793;28;20419;-88
2023/08/16 02:24:20;;;;;;;8.80;7.90;;;12.50;99.90;;;;;;5050639;28;21009;-88
2023/08/16 02:26:46;;;;;;;11.35;10.20;;;12.60;99.90;;;;;;5051278;28;20503;-88
2023/08/16 02:29:12;;;;;;;13.13;10.70;;;12.20;99.90;;;;;;5051046;28;20904;-88
2023/08/16 02:31:37;;;;;;;15.20;13.10;;;12.20;99.90;;;;;;5051569;28;20407;-88
2023/08/16 02:34:03;;;;;;;11.63;10.43;;;12.10;99.90;;;;;;5051233;28;20465;-88
2023/08/16 02:36:29;;;;;;;13.40;11.23;;;12.10;99.90;;;;;;5050859;28;20847;-89
2023/08/16 02:38:54;;;;;;;11.38;9.55;;;12.10;99.90;;;;;;5051406;28;20407;-88
2023/08/16 02:41:20;;;;;;;11.27;10.17;;;12.10;99.90;;;;;;5067386;28;20962;-88
2023/08/16 02:43:45;;;;;;;12.55;10.38;;;12.50;99.90;;;;;;5051765;28;21163;-87
2023/08/16 02:46:11;;;;;;;12.77;11.23;;;12.40;99.90;;;;;;5050991;28;20403;-88
2023/08/16 02:48:37;;;;;;;10.80;9.23;;;12.00;99.90;;;;;;5067587;28;20466;-88
2023/08/16 02:51:03;;;;;;;14.38;9.68;;;12.00;99.90;;;;;;5053641;28;20447;-89
2023/08/16 02:53:28;;;;;;;10.32;9.20;;;11.90;99.90;;;;;;5053887;28;20439;-89
2023/08/16 02:55:54;;;;;;;8.13;7.40;;;12.00;99.90;;;;;;5054480;28;20437;-88
2023/08/16 02:58:19;;;;;;;9.17;8.37;;;12.00;99.90;;;;;;5053778;28;20495;-88
2023/08/16 03:00:50;;;;;;;8.00;7.20;;;11.90;99.90;;;;;;5054074;28;20475;-87
2023/08/16 03:03:16;;;;;;;10.63;9.52;;;12.00;99.90;;;;;;5069482;28;20423;-88
2023/08/16 03:05:42;;;;;;;10.07;9.07;;;11.90;99.90;;;;;;5053527;28;20404;-88
2023/08/16 03:08:08;;;;;;;10.47;9.13;;;11.90;99.90;;;;;;5052899;28;20405;-88
2023/08/16 03:10:33;;;;;;;13.93;11.95;;;11.90;99.90;;;;;;5053298;28;20425;-87
2023/08/16 03:12:59;;;;;;;16.13;13.77;;;11.90;99.90;;;;;;5053306;28;20501;-88
2023/08/16 03:15:25;;;;;;;9.90;8.90;;;11.90;99.90;;;;;;5069538;28;20406;-89
2023/08/16 03:17:51;;;;;;;11.48;10.25;;;11.80;99.90;;;;;;5053434;28;20455;-87
2023/08/16 03:20:16;;;;;;;10.67;9.00;;;11.80;99.90;;;;;;5052917;28;20406;-87
2023/08/16 03:22:42;;;;;;;16.90;14.33;;;12.30;99.90;;;;;;5053476;28;20492;-88
2023/08/16 03:25:08;;;;;;;11.10;10.00;;;11.90;99.90;;;;;;5052449;28;20759;-89
2023/08/16 03:27:34;;;;;;;9.90;9.02;;;11.90;99.90;;;;;;5053125;28;20394;-90
2023/08/16 03:30:00;;;;;;;9.98;9.07;;;11.80;99.90;;;;;;5052598;28;20930;-88
2023/08/16 03:32:25;;;;;;;10.38;8.32;;;11.70;99.90;;;;;;5052526;28;20394;-89
2023/08/16 03:34:51;;;;;;;12.73;9.77;;;11.70;99.90;;;;;;5053604;28;20920;-88
2023/08/16 03:37:17;;;;;;;9.95;8.38;;;11.60;99.90;;;;;;5069374;28;20406;-88
2023/08/16 03:39:42;;;;;;;11.73;10.10;;;11.70;99.90;;;;;;5052398;28;20482;-87
2023/08/16 03:42:08;;;;;;;10.95;9.80;;;11.70;99.90;;;;;;5052363;28;20943;-89
2023/08/16 03:44:34;;;;;;;11.80;10.60;;;11.80;99.90;;;;;;5069178;28;20426;-87
2023/08/16 03:47:00;;;;;;;17.70;13.30;;;11.70;99.90;;;;;;5052117;28;20837;-89
2023/08/16 03:49:25;;;;;;;16.20;12.40;;;11.70;99.90;;;;;;5069127;28;20775;-87
2023/08/16 03:51:51;;;;;;;13.23;11.60;;;11.70;99.90;;;;;;5052947;28;20879;-87
2023/08/16 03:54:16;;;;;;;11.73;10.50;;;11.70;99.90;;;;;;5068978;28;20406;-88
2023/08/16 03:56:42;;;;;;;11.18;9.98;;;11.80;99.90;;;;;;5052749;28;20405;-87
2023/08/16 03:59:08;;;;;;;11.63;9.53;;;11.60;99.90;;;;;;5068863;28;20405;-88
2023/08/16 04:01:33;;;;;;;14.35;10.73;;;11.60;99.90;;;;;;5052323;28;20413;-87
2023/08/16 04:03:59;;;;;;;17.73;13.48;;;11.60;99.90;;;;;;5051643;28;20926;-88
2023/08/16 04:06:25;;;;;;;12.03;9.23;;;11.60;99.90;;;;;;5052474;28;20404;-88
2023/08/16 04:08:50;;;;;;;8.27;7.30;;;11.60;99.90;;;;;;5052068;28;20481;-87
2023/08/16 04:11:16;;;;;;;8.07;7.33;;;11.50;99.90;;;;;;5068684;28;20414;-88
2023/08/16 04:13:42;;;;;;;10.40;9.07;;;11.50;99.90;;;;;;5052305;28;20405;-88
2023/08/16 04:16:07;;;;;;;8.48;7.60;;;11.50;99.90;;;;;;5068874;28;20423;-88
2023/08/16 04:18:33;;;;;;;10.60;9.37;;;11.50;99.90;;;;;;5052843;28;20921;-87
2023/08/16 04:20:59;;;;;;;12.95;10.13;;;11.60;99.90;;;;;;5051362;28;20394;-88
2023/08/16 04:23:25;;;;;;;14.15;11.65;;;11.50;99.90;;;;;;5052058;28;20387;-87
2023/08/16 04:25:51;;;;;;;14.02;10.82;;;11.50;99.90;;;;;;5068665;28;20451;-88
2023/08/16 04:28:16;;;;;;;11.23;9.77;;;11.50;99.90;;;;;;5052249;28;20418;-88
2023/08/16 04:30:42;;;;;;;14.40;10.27;;;11.90;99.90;;;;;;5052470;28;20459;-87
2023/08/16 04:33:07;;;;;;;10.23;9.03;;;11.60;99.90;;;;;;5051646;28;20394;-89
2023/08/16 04:35:33;;;;;;;17.83;11.07;;;11.60;99.90;;;;;;5069344;28;20930;-88
2023/08/16 04:37:58;;;;;;;11.83;9.30;;;11.60;99.90;;;;;;5068228;28;20475;-87
2023/08/16 04:40:24;;;;;;;50.50;15.68;;;11.90;99.90;;;;;;5051550;28;20527;-88
2023/08/16 04:42:50;;;;;;;32.08;14.77;;;11.70;99.90;;;;;;5051187;28;20832;-87
2023/08/16 04:45:15;;;;;;;23.83;14.87;;;11.70;99.90;;;;;;5069022;28;20929;-88
2023/08/16 04:47:41;;;;;;;22.50;15.35;;;11.70;99.90;;;;;;5051765;28;20402;-87
2023/08/16 04:50:07;;;;;;;16.50;12.33;;;11.70;99.90;;;;;;5051609;28;20410;-88
2023/08/16 04:52:37;;;;;;;26.60;15.73;;;11.80;99.90;;;;;;5055010;28;20402;-88
2023/08/16 04:55:06;;;;;;;18.80;13.77;;;11.80;99.90;;;;;;5055425;28;20402;-89
2023/08/16 04:57:32;;;;;;;18.80;14.40;;;11.90;99.90;;;;;;5056189;28;20410;-87
2023/08/16 04:59:57;;;;;;;17.63;12.85;;;12.00;99.90;;;;;;5055605;28;20849;-88
2023/08/16 05:02:23;;;;;;;16.20;11.52;;;12.00;99.90;;;;;;5055543;28;20421;-87
2023/08/16 05:04:49;;;;;;;17.00;12.87;;;12.30;99.90;;;;;;5055305;28;20717;-88
2023/08/16 05:07:15;;;;;;;15.10;12.13;;;12.10;99.90;;;;;;5055443;28;21237;-88
2023/08/16 05:09:41;;;;;;;19.02;14.65;;;12.60;99.90;;;;;;5055665;28;20751;-87
2023/08/16 05:12:06;;;;;;;21.17;15.90;;;12.60;99.90;;;;;;5055217;28;20406;-88
2023/08/16 05:14:32;;;;;;;19.50;14.57;;;12.50;99.90;;;;;;5050536;28;20502;-87
2023/08/16 05:16:58;;;;;;;22.00;15.77;;;12.50;99.90;;;;;;5035030;28;20491;-86
2023/08/16 05:19:23;;;;;;;16.85;14.00;;;12.60;99.90;;;;;;5044566;28;20416;-88
2023/08/16 05:21:49;;;;;;;18.87;14.63;;;12.80;99.90;;;;;;5054435;28;20449;-87
2023/08/16 05:24:15;;;;;;;18.08;14.95;;;12.70;99.90;;;;;;5054538;28;20437;-88
2023/08/16 05:26:40;;;;;;;22.00;17.53;;;13.10;99.90;;;;;;5054703;28;21093;-87
2023/08/16 05:29:06;;;;;;;17.05;14.23;;;13.20;99.90;;;;;;5054455;28;20412;-88
2023/08/16 05:31:32;;;;;;;18.17;15.63;;;13.40;99.90;;;;;;5055556;28;20406;-88
2023/08/16 05:33:57;;;;;;;15.68;13.50;;;13.80;99.90;;;;;;5070239;28;20489;-88
2023/08/16 05:36:28;;;;;;;19.80;17.08;;;13.70;99.90;;;;;;5053997;28;20989;-88
2023/08/16 05:38:54;;;;;;;17.75;14.95;;;13.90;99.90;;;;;;5054369;28;20952;-89
2023/08/16 05:41:19;;;;;;;19.38;16.48;;;14.00;99.90;;;;;;5071491;28;20413;-88
2023/08/16 05:43:45;;;;;;;18.97;15.50;;;14.10;99.90;;;;;;5071092;28;20517;-88
2023/08/16 05:46:11;;;;;;;17.23;13.98;;;14.30;99.90;;;;;;5054065;28;20739;-87
2023/08/16 05:48:36;;;;;;;14.27;12.27;;;14.50;99.90;;;;;;5054864;28;20405;-87
2023/08/16 05:51:02;;;;;;;15.88;13.55;;;14.70;99.90;;;;;;5054732;28;20402;-87
2023/08/16 05:53:28;;;;;;;14.57;13.03;;;14.70;99.90;;;;;;5054996;28;20489;-88
2023/08/16 05:55:53;;;;;;;16.70;14.15;;;15.10;99.90;;;;;;5054341;28;20477;-88
2023/08/16 05:58:19;;;;;;;20.33;18.27;;;15.00;99.90;;;;;;5055120;28;20453;-87
2023/08/16 06:00:46;;;;;;;18.23;15.60;;;15.30;99.90;;;;;;5054354;28;20466;-87
2023/08/16 06:03:13;;;;;;;18.40;16.50;;;15.20;99.90;;;;;;5056666;28;20427;-87
2023/08/16 06:05:39;;;;;;;16.27;14.75;;;15.40;99.90;;;;;;5034089;28;20513;-88
2023/08/16 06:08:05;;;;;;;16.30;14.60;;;15.20;99.90;;;;;;5050864;28;20462;-87
2023/08/16 06:10:30;;;;;;;18.47;16.43;;;15.70;99.90;;;;;;5051030;28;20408;-88
2023/08/16 06:12:56;;;;;;;17.38;15.80;;;15.90;99.90;;;;;;5050920;28;20408;-88
2023/08/16 06:15:22;;;;;;;18.27;16.48;;;16.00;99.90;;;;;;5045758;28;20448;-88
2023/08/16 06:17:47;;;;;;;20.00;17.90;;;16.10;99.90;;;;;;5053564;28;20399;-89
2023/08/16 06:20:14;;;;;;;21.70;18.55;;;16.40;99.90;;;;;;5054542;28;20449;-88
2023/08/16 06:22:39;;;;;;;20.15;17.40;;;16.30;99.90;;;;;;5054625;28;20401;-88
2023/08/16 06:25:06;;;;;;;18.77;16.83;;;16.30;99.90;;;;;;5050215;28;20796;-90
2023/08/16 06:27:33;;;;;;;21.50;19.23;;;16.40;99.90;;;;;;5035373;28;20407;-88
2023/08/16 06:29:59;;;;;;;22.10;19.75;;;16.40;99.90;;;;;;5033602;28;20486;-88
2023/08/16 06:32:25;;;;;;;20.30;17.67;;;16.30;99.90;;;;;;5034688;28;20840;-89
2023/08/16 06:34:51;;;;;;;20.30;18.20;;;16.70;99.90;;;;;;5034132;28;20435;-89
2023/08/16 06:37:16;;;;;;;20.47;18.27;;;16.70;99.90;;;;;;5034029;28;20446;-89
2023/08/16 06:39:42;;;;;;;17.63;15.55;;;16.80;99.90;;;;;;5033929;28;20399;-89
2023/08/16 06:42:09;;;;;;;16.57;14.83;;;17.40;99.90;;;;;;5034492;28;20404;-88
2023/08/16 06:44:35;;;;;;;17.40;14.63;;;17.10;99.90;;;;;;5034095;28;20432;-89
2023/08/16 06:47:01;;;;;;;17.17;14.65;;;17.20;99.90;;;;;;5034127;28;20438;-89
2023/08/16 06:49:27;;;;;;;14.95;13.27;;;17.40;99.90;;;;;;5034280;28;20415;-90
2023/08/16 06:51:53;;;;;;;15.48;13.98;;;17.60;99.90;;;;;;5033977;28;20456;-90
2023/08/16 06:54:18;;;;;;;13.23;11.90;;;17.60;99.90;;;;;;5034994;28;20972;-89
2023/08/16 06:56:44;;;;;;;13.38;12.18;;;17.80;99.90;;;;;;5034141;28;20435;-89
2023/08/16 06:59:10;;;;;;;16.33;11.87;;;18.10;99.90;;;;;;5034473;28;20415;-89
2023/08/16 07:01:36;;;;;;;13.70;11.07;;;18.20;99.90;;;;;;5034490;28;20415;-89
2023/08/16 07:04:02;;;;;;;13.97;11.97;;;18.00;99.90;;;;;;5033996;28;20427;-90
2023/08/16 07:06:31;;;;;;;13.40;11.95;;;18.40;99.90;;;;;;5035001;28;20407;-91
2023/08/16 07:08:58;;;;;;;13.40;11.50;;;18.70;99.90;;;;;;5033958;28;20498;-90
2023/08/16 07:11:24;;;;;;;17.02;13.75;;;18.60;99.90;;;;;;5051083;28;20560;-89
2023/08/16 07:13:50;;;;;;;9.63;8.60;;;18.90;99.90;;;;;;5033060;28;20396;-91
2023/08/16 07:16:17;;;;;;;9.70;8.32;;;19.30;99.90;;;;;;5034189;28;20488;-89
2023/08/16 07:18:43;;;;;;;13.48;8.18;;;19.50;99.90;;;;;;5033337;28;20959;-90
2023/08/16 07:21:11;;;;;;;12.97;10.83;;;19.70;99.90;;;;;;5033949;28;20408;-90
2023/08/16 07:23:36;;;;;;;7.90;5.82;;;19.50;99.90;;;;;;5033591;28;20439;-88
2023/08/16 07:26:03;;;;;;;7.70;5.63;;;19.50;99.90;;;;;;5033681;28;20447;-90
2023/08/16 07:28:28;;;;;;;7.10;5.60;;;20.10;99.90;;;;;;5034065;28;20407;-90
2023/08/16 07:30:55;;;;;;;5.78;4.60;;;20.00;99.90;;;;;;5053047;28;20399;-91
2023/08/16 07:33:22;;;;;;;8.73;6.15;;;20.10;99.90;;;;;;5038715;28;20403;-90
2023/08/16 07:35:48;;;;;;;8.20;6.45;;;20.20;99.90;;;;;;5033416;28;20412;-88
2023/08/16 07:38:14;;;;;;;9.07;4.82;;;20.30;99.90;;;;;;5049446;28;20407;-90
2023/08/16 07:40:39;;;;;;;6.83;4.83;;;20.30;99.90;;;;;;5049141;28;20400;-88
2023/08/16 07:43:05;;;;;;;9.02;6.53;;;20.50;99.90;;;;;;5032613;28;20403;-90
2023/08/16 07:45:31;;;;;;;8.85;7.75;;;20.50;99.90;;;;;;5033040;28;20424;-88
2023/08/16 07:47:56;;;;;;;7.43;6.73;;;20.50;99.90;;;;;;5049470;28;20771;-90
2023/08/16 07:50:22;;;;;;;9.70;8.80;;;20.70;99.90;;;;;;5049416;28;20561;-93
2023/08/16 07:52:49;;;;;;;8.63;7.72;;;20.40;99.90;;;;;;5048722;28;20404;-92
2023/08/16 07:55:29;;;;;;;7.88;6.05;;;20.50;99.90;;;;;;5055835;28;20414;-95
2023/08/16 07:57:57;;;;;;;9.98;7.03;;;20.50;99.90;;;;;;5056798;28;20440;-94
2023/08/16 08:00:23;;;;;;;7.77;6.57;;;21.00;99.90;;;;;;5054439;28;20456;-94
2023/08/16 08:02:48;;;;;;;7.47;5.65;;;20.80;99.90;;;;;;5055359;28;20493;-89
2023/08/16 08:05:15;;;;;;;9.17;6.57;;;20.90;99.90;;;;;;5052013;28;20757;-91
2023/08/16 08:07:40;;;;;;;5.33;3.73;;;20.90;99.90;;;;;;5051607;28;20402;-92
2023/08/16 08:10:07;;;;;;;7.28;4.18;;;21.00;99.90;;;;;;5053938;28;20458;-93
2023/08/16 08:12:33;;;;;;;4.85;3.67;;;21.30;99.90;;;;;;5052305;28;20390;-89
2023/08/16 08:14:59;;;;;;;4.82;3.30;;;21.00;99.90;;;;;;5053989;28;20604;-92
2023/08/16 08:17:24;;;;;;;5.10;3.00;;;21.80;99.90;;;;;;5058555;28;20436;-93
2023/08/16 08:19:50;;;;;;;4.90;3.00;;;21.60;99.90;;;;;;5063911;28;20759;-94
2023/08/16 08:22:16;;;;;;;4.40;2.90;;;22.30;99.90;;;;;;5054726;28;20406;-90
2023/08/16 08:24:41;;;;;;;4.50;2.60;;;21.80;99.90;;;;;;5051074;28;20430;-92
2023/08/16 08:27:07;;;;;;;4.93;2.33;;;21.90;99.90;;;;;;5052327;28;20406;-93
2023/08/16 08:29:33;;;;;;;5.37;2.63;;;22.10;99.90;;;;;;5051034;28;20402;-89
2023/08/16 08:31:58;;;;;;;4.95;3.05;;;22.10;99.90;;;;;;5052416;28;20405;-92
2023/08/16 08:34:26;;;;;;;5.73;3.10;;;22.20;99.90;;;;;;5051874;28;20391;-94
2023/08/16 08:36:56;;;;;;;4.10;2.23;;;22.40;99.90;;;;;;5068698;28;20398;-94
2023/08/16 08:39:26;;;;;;;3.78;2.13;;;22.70;99.90;;;;;;5058351;28;20432;-94
2023/08/16 08:41:56;;;;;;;3.77;2.50;;;22.70;99.90;;;;;;5071837;28;20386;-92
2023/08/16 08:44:22;;;;;;;5.28;2.40;;;23.00;99.90;;;;;;5063756;28;20432;-94
2023/08/16 08:46:48;;;;;;;4.13;2.53;;;23.00;99.90;;;;;;5058477;28;20440;-92
2023/08/16 08:49:15;;;;;;;5.28;2.58;;;23.00;99.90;;;;;;5051386;28;20602;-92
2023/08/16 08:51:41;;;;;;;4.07;2.30;;;22.80;96.40;;;;;;5064569;28;20766;-90
2023/08/16 08:54:08;;;;;;;4.57;2.70;;;22.50;99.90;;;;;;5064959;28;20448;-92
2023/08/16 08:56:34;;;;;;;3.25;2.50;;;22.30;99.90;;;;;;5047402;28;20415;-91
2023/08/16 08:59:01;;;;;;;4.55;2.28;;;22.20;99.90;;;;;;5048274;28;20886;-91
2023/08/16 09:01:27;;;;;;;3.40;2.10;;;22.30;99.90;;;;;;5048410;28;20768;-93
2023/08/16 09:03:56;;;;;;;3.90;2.53;;;22.50;99.90;;;;;;5016162;28;20435;-92
2023/08/16 09:06:22;;;;;;;3.83;2.58;;;22.30;98.10;;;;;;5014674;28;20411;-93
2023/08/16 09:08:48;;;;;;;3.92;2.20;;;22.40;99.90;;;;;;5030100;28;20443;-95
2023/08/16 09:11:20;;;;;;;4.18;2.40;;;22.60;99.90;;;;;;5018669;28;20738;-94
2023/08/16 09:13:47;;;;;;;4.28;2.40;;;22.70;99.50;;;;;;5036537;28;20420;-93
2023/08/16 09:16:13;;;;;;;3.88;2.50;;;22.40;99.90;;;;;;5009063;28;20403;-94
2023/08/16 09:18:47;;;;;;;4.85;2.50;;;22.90;96.40;;;;;;5012411;28;20495;-94
2023/08/16 09:21:16;;;;;;;3.80;2.70;;;23.00;98.60;;;;;;5016218;28;20403;-89
2023/08/16 09:23:42;;;;;;;2.88;2.08;;;23.80;92.60;;;;;;5023597;28;20800;-89
2023/08/16 09:26:17;;;;;;;3.72;1.42;;;23.10;94.10;;;;;;5019444;28;20412;-91
2023/08/16 09:28:43;;;;;;;4.68;1.50;;;23.40;97.70;;;;;;5048513;28;20445;-89
2023/08/16 09:31:10;;;;;;;3.03;1.40;;;23.70;90.80;;;;;;5046441;28;20417;-93
2023/08/16 09:33:38;;;;;;;2.80;1.30;;;23.50;86.60;;;;;;5029918;28;20405;-89
2023/08/16 09:36:04;;;;;;;3.30;0.88;;;23.50;90.40;;;;;;5023278;28;20418;-91
2023/08/16 09:38:32;;;;;;;2.10;0.50;;;23.70;83.40;;;;;;5010213;28;20771;-90
2023/08/16 09:41:00;;;;;;;2.73;0.70;;;23.90;94.80;;;;;;5021780;28;20752;-92
2023/08/16 09:43:34;;;;;;;2.87;0.80;;;24.00;84.80;;;;;;5031301;28;20859;-89
2023/08/16 09:46:03;;;;;;;2.67;0.60;;;23.80;77.10;;;;;;5030468;28;20402;-91
2023/08/16 09:48:31;;;;;;;2.72;0.93;;;23.60;79.40;;;;;;5032280;28;20428;-90
2023/08/16 09:51:03;;;;;;;3.73;1.03;;;23.50;81.30;;;;;;5044608;28;20425;-92
2023/08/16 09:53:32;;;;;;;2.42;0.80;;;23.40;85.70;;;;;;5054110;28;20410;-91
2023/08/16 09:56:02;;;;;;;2.00;0.77;;;23.50;77.50;;;;;;5055396;28;20406;-93
2023/08/16 09:58:40;;;;;;;2.83;1.00;;;23.50;74.30;;;;;;5055384;28;20409;-94
2023/08/16 10:01:06;;;;;;;2.72;0.70;;;23.80;88.80;;;;;;5055044;28;20459;-91
2023/08/16 10:03:33;;;;;;;2.30;0.60;;;24.10;88.10;;;;;;5070699;28;20394;-93
2023/08/16 10:06:00;;;;;;;2.65;1.00;;;24.20;72.50;;;;;;5057802;28;20471;-93
2023/08/16 10:08:27;;;;;;;2.80;1.15;;;24.50;78.90;;;;;;5053517;28;20830;-89
2023/08/16 10:10:54;;;;;;;2.58;0.90;;;24.80;69.80;;;;;;5052054;28;20491;-89
2023/08/16 10:13:22;;;;;;;2.55;0.60;;;25.10;67.10;;;;;;5053004;28;20485;-89
2023/08/16 10:15:50;;;;;;;3.03;0.82;;;25.20;66.80;;;;;;5053176;28;20469;-92
2023/08/16 10:18:19;;;;;;;2.53;1.60;;;25.20;67.50;;;;;;5053583;28;20406;-90
2023/08/16 10:20:48;;;;;;;3.20;1.00;;;25.30;65.20;;;;;;5070393;28;20402;-88
2023/08/16 10:23:17;;;;;;;2.75;1.60;;;25.50;67.10;;;;;;5070420;28;20860;-88
2023/08/16 10:25:45;;;;;;;2.17;1.10;;;25.90;61.50;;;;;;5070080;28;20487;-90
2023/08/16 10:28:11;;;;;;;3.97;1.10;;;26.40;64.50;;;;;;5070662;28;20472;-92
2023/08/16 10:30:38;;;;;;;2.25;1.30;;;26.90;58.60;;;;;;5055105;28;20402;-93
2023/08/16 10:33:15;;;;;;;2.53;1.40;;;27.50;60.30;;;;;;5054120;28;20411;-91
2023/08/16 10:35:42;;;;;;;2.60;0.98;;;27.80;55.60;;;;;;5070437;28;20501;-91
2023/08/16 10:38:08;;;;;;;2.28;1.30;;;28.20;57.20;;;;;;5052648;28;20478;-91
2023/08/16 10:40:33;;;;;;;2.40;1.00;;;28.20;53.90;;;;;;5053333;28;20771;-91
2023/08/16 10:43:05;;;;;;;2.60;1.00;;;27.90;53.20;;;;;;5053294;28;20410;-89
2023/08/16 10:45:35;;;;;;;2.90;1.10;;;27.50;54.30;;;;;;5052725;28;21377;-91
2023/08/16 10:48:15;;;;;;;2.58;1.10;;;27.10;54.80;;;;;;5053875;28;20410;-90
2023/08/16 10:50:42;;;;;;;2.40;1.08;;;26.80;58.00;;;;;;5052071;28;20414;-90
2023/08/16 10:53:08;;;;;;;2.25;1.20;;;26.90;58.50;;;;;;5052576;28;20399;-90
2023/08/16 10:55:37;;;;;;;2.55;0.98;;;27.20;55.10;;;;;;5069225;28;20489;-89
2023/08/16 10:58:03;;;;;;;1.92;0.90;;;27.20;53.80;;;;;;5052524;28;20402;-87
2023/08/16 11:00:33;;;;;;;2.43;0.90;;;27.10;57.50;;;;;;5052293;28;20417;-89
2023/08/16 11:03:01;;;;;;;2.65;0.50;;;27.00;58.10;;;;;;5050069;28;20406;-89
2023/08/16 11:05:30;;;;;;;2.92;0.60;;;27.20;58.00;;;;;;5052191;28;20434;-92
2023/08/16 11:07:57;;;;;;;1.45;0.43;;;27.70;60.10;;;;;;5051643;28;20410;-88
2023/08/16 11:10:35;;;;;;;2.00;0.50;;;28.40;53.10;;;;;;5051568;28;20501;-91
2023/08/16 11:13:03;;;;;;;1.98;0.57;;;29.10;52.80;;;;;;5032163;28;20400;-89
2023/08/16 11:15:29;;;;;;;2.25;0.40;;;29.40;50.30;;;;;;5032465;28;20476;-90
2023/08/16 11:17:55;;;;;;;1.40;0.35;;;29.60;50.10;;;;;;5051125;28;20895;-87
2023/08/16 11:20:23;;;;;;;1.55;0.40;;;29.80;50.00;;;;;;5068952;28;20445;-89
2023/08/16 11:22:49;;;;;;;1.95;0.40;;;30.20;52.60;;;;;;5053630;28;20506;-90
2023/08/16 11:25:15;;;;;;;1.03;0.30;;;30.30;47.90;;;;;;5052647;28;20426;-87
2023/08/16 11:27:41;;;;;;;1.30;0.30;;;30.60;44.20;;;;;;5052414;28;20878;-92
2023/08/16 11:30:08;;;;;;;1.30;0.38;;;30.80;47.30;;;;;;5051914;28;20402;-91
2023/08/16 11:32:36;;;;;;;2.55;0.40;;;30.80;43.40;;;;;;5068542;28;20402;-90
2023/08/16 11:35:11;;;;;;;2.55;0.40;;;31.00;48.20;;;;;;5068868;28;20414;-90
2023/08/16 11:37:43;;;;;;;2.58;0.40;;;31.20;46.20;;;;;;5051561;28;20912;-93
2023/08/16 11:40:09;;;;;;;2.38;0.30;;;31.40;43.20;;;;;;5054397;28;20570;-94
2023/08/16 11:42:35;;;;;;;1.58;0.30;;;31.60;43.80;;;;;;5055764;28;20405;-92
2023/08/16 11:45:05;;;;;;;2.42;0.30;;;31.80;43.40;;;;;;5054713;28;20433;-90
2023/08/16 11:47:31;;;;;;;1.42;0.30;;;31.80;41.60;;;;;;5052930;28;20398;-94
2023/08/16 11:49:57;;;;;;;1.48;0.30;;;32.00;43.00;;;;;;5051264;28;20417;-91
2023/08/16 11:52:23;;;;;;;1.60;0.33;;;32.30;42.90;;;;;;5052101;28;20406;-92
2023/08/16 11:55:06;;;;;;;1.75;0.40;;;32.50;43.50;;;;;;5050553;28;20806;-90
2023/08/16 11:57:33;;;;;;;1.63;0.30;;;32.20;42.10;;;;;;5068779;28;20766;-90
2023/08/16 12:00:03;;;;;;;1.80;0.40;;;31.50;43.00;;;;;;5050748;28;20493;-90
2023/08/16 12:02:28;;;;;;;1.10;0.30;;;30.70;42.40;;;;;;5051429;28;20867;-91
2023/08/16 12:04:54;;;;;;;2.22;0.30;;;30.40;46.00;;;;;;5051758;28;20461;-89
2023/08/16 12:07:20;;;;;;;1.73;0.30;;;30.40;46.90;;;;;;5051119;28;20405;-92
2023/08/16 12:09:49;;;;;;;1.70;0.30;;;30.20;43.30;;;;;;5051398;28;20412;-87
2023/08/16 12:12:15;;;;;;;1.33;0.20;;;30.10;45.20;;;;;;5066877;28;20784;-89
2023/08/16 12:14:40;;;;;;;1.02;0.20;;;30.10;47.50;;;;;;5051476;28;20420;-90
2023/08/16 12:17:06;;;;;;;1.40;0.30;;;30.00;45.40;;;;;;5051383;28;20513;-88
2023/08/16 12:19:32;;;;;;;1.43;0.20;;;29.80;46.00;;;;;;5050961;28;20398;-89
2023/08/16 12:21:57;;;;;;;1.48;0.25;;;29.80;46.10;;;;;;5067350;28;20768;-90
2023/08/16 12:24:23;;;;;;;1.57;0.27;;;29.40;46.60;;;;;;5051460;28;20418;-90
2023/08/16 12:26:49;;;;;;;1.37;0.20;;;29.00;47.40;;;;;;5051974;28;20585;-91
2023/08/16 12:29:15;;;;;;;1.10;0.25;;;29.20;49.10;;;;;;5051076;28;20981;-88
2023/08/16 12:31:42;;;;;;;1.37;0.20;;;29.70;48.40;;;;;;5067885;28;20436;-92
2023/08/16 12:34:07;;;;;;;0.80;0.20;;;30.20;49.30;;;;;;5050474;28;20410;-89
2023/08/16 12:36:33;;;;;;;0.87;0.30;;;30.80;50.10;;;;;;5067708;28;20417;-89